createdAt,value
2018-05-09T00:01:12.213Z,18.50
2018-05-09T00:03:38.394Z,18.60
2018-05-09T00:06:04.575Z,18.60
2018-05-09T00:08:30.764Z,18.30
2018-05-09T00:10:56.935Z,18.40
2018-05-09T00:13:23.113Z,18.40
2018-05-09T00:15:49.294Z,18.50
2018-05-09T00:18:15.463Z,18.40
2018-05-09T00:20:41.660Z,18.40
2018-05-09T00:23:07.830Z,18.40
2018-05-09T00:25:34.022Z,18.30
2018-05-09T00:28:01.286Z,18.20
2018-05-09T00:30:27.452Z,18.20
2018-05-09T00:32:53.642Z,18.30
2018-05-09T00:35:19.795Z,18.30
2018-05-09T00:37:46.074Z,18.40
2018-05-09T00:40:12.276Z,18.20
2018-05-09T00:42:38.457Z,18.20
2018-05-09T00:45:04.646Z,18.20
2018-05-09T00:47:30.841Z,18.20
2018-05-09T00:49:57.022Z,18.10
2018-05-09T00:52:23.175Z,17.90
2018-05-09T00:54:49.331Z,17.80
2018-05-09T00:57:16.614Z,18.00
2018-05-09T00:59:42.794Z,17.80
2018-05-09T01:02:09.000Z,17.80
2018-05-09T01:04:35.184Z,17.80
2018-05-09T01:07:01.374Z,17.90
2018-05-09T01:11:55.917Z,17.80
2018-05-09T01:14:22.466Z,17.90
2018-05-09T01:16:48.944Z,17.80
2018-05-09T01:19:15.407Z,17.80
2018-05-09T01:21:41.895Z,17.60
2018-05-09T01:26:36.030Z,17.60
2018-05-09T01:29:02.271Z,17.70
2018-05-09T01:31:28.426Z,17.70
2018-05-09T01:33:54.597Z,17.70
2018-05-09T01:36:20.794Z,17.70
2018-05-09T01:38:46.974Z,17.60
2018-05-09T01:41:13.138Z,17.60
2018-05-09T01:43:39.327Z,17.60
2018-05-09T01:46:05.527Z,17.40
2018-05-09T01:48:32.862Z,17.50
2018-05-09T01:50:59.039Z,17.50
2018-05-09T01:53:26.319Z,17.60
2018-05-09T01:55:52.506Z,17.40
2018-05-09T01:58:18.665Z,17.50
2018-05-09T02:00:44.847Z,17.60
2018-05-09T02:03:11.011Z,17.70
2018-05-09T02:05:37.195Z,17.60
2018-05-09T02:08:03.401Z,17.50
2018-05-09T02:10:29.583Z,17.40
2018-05-09T02:12:56.892Z,17.40
2018-05-09T02:15:23.095Z,17.40
2018-05-09T02:17:50.366Z,17.40
2018-05-09T02:20:16.561Z,17.40
2018-05-09T02:22:42.722Z,17.40
2018-05-09T02:25:08.913Z,17.30
2018-05-09T02:27:35.077Z,17.30
2018-05-09T02:30:01.246Z,17.40
2018-05-09T02:32:27.419Z,17.30
2018-05-09T02:34:53.590Z,17.30
2018-05-09T02:37:19.784Z,17.30
2018-05-09T02:42:13.920Z,17.40
2018-05-09T02:44:40.122Z,17.30
2018-05-09T02:47:06.297Z,17.20
2018-05-09T02:49:33.591Z,17.20
2018-05-09T02:51:59.778Z,17.20
2018-05-09T02:54:25.942Z,17.10
2018-05-09T02:56:53.230Z,17.20
2018-05-09T02:59:19.394Z,17.20
2018-05-09T03:01:45.602Z,17.20
2018-05-09T03:04:11.782Z,17.20
2018-05-09T03:06:37.938Z,17.30
2018-05-09T03:09:05.160Z,17.20
2018-05-09T03:11:31.335Z,17.20
2018-05-09T03:13:57.510Z,17.10
2018-05-09T03:16:24.808Z,17.10
2018-05-09T03:18:50.971Z,16.90
2018-05-09T03:21:17.156Z,17.10
2018-05-09T03:23:44.443Z,17.00
2018-05-09T03:26:10.635Z,17.00
2018-05-09T03:28:36.810Z,17.00
2018-05-09T03:31:04.087Z,16.90
2018-05-09T03:33:30.270Z,16.90
2018-05-09T03:35:56.559Z,16.90
2018-05-09T03:38:23.847Z,16.90
2018-05-09T03:40:50.010Z,16.80
2018-05-09T03:43:16.182Z,16.80
2018-05-09T03:45:42.355Z,16.80
2018-05-09T03:48:08.534Z,16.60
2018-05-09T03:50:34.756Z,16.60
2018-05-09T03:53:00.944Z,16.70
2018-05-09T03:55:27.114Z,16.90
2018-05-09T03:57:53.325Z,16.80
2018-05-09T04:00:19.494Z,16.70
2018-05-09T04:02:59.522Z,16.60
2018-05-09T04:05:37.923Z,16.60
2018-05-09T04:08:16.495Z,16.60
2018-05-09T04:10:44.702Z,16.40
2018-05-09T04:13:12.034Z,16.50
2018-05-09T04:15:38.190Z,16.50
2018-05-09T04:18:05.350Z,16.50
2018-05-09T04:20:31.546Z,16.60
2018-05-09T04:22:57.720Z,16.70
2018-05-09T04:25:23.897Z,16.70
2018-05-09T04:27:51.177Z,16.70
2018-05-09T04:30:17.398Z,16.70
2018-05-09T04:32:44.743Z,16.80
2018-05-09T04:35:10.914Z,16.80
2018-05-09T04:37:38.230Z,16.80
2018-05-09T04:40:04.414Z,16.80
2018-05-09T04:42:31.707Z,16.80
2018-05-09T04:44:57.948Z,16.80
2018-05-09T04:47:24.118Z,16.70
2018-05-09T04:49:50.328Z,16.80
2018-05-09T04:52:16.539Z,16.80
2018-05-09T04:54:43.824Z,17.00
2018-05-09T04:57:10.018Z,17.00
2018-05-09T04:59:36.190Z,17.00
2018-05-09T05:04:30.703Z,17.00
2018-05-09T05:06:56.910Z,16.90
2018-05-09T05:09:23.090Z,17.00
2018-05-09T05:11:50.815Z,17.10
2018-05-09T05:14:17.010Z,17.10
2018-05-09T05:16:44.681Z,17.10
2018-05-09T05:19:10.939Z,17.10
2018-05-09T05:21:38.259Z,17.00
2018-05-09T05:24:04.435Z,17.00
2018-05-09T05:26:31.739Z,17.20
2018-05-09T05:28:57.931Z,17.10
2018-05-09T05:31:24.191Z,17.20
2018-05-09T05:36:19.038Z,17.20
2018-05-09T05:38:45.599Z,17.40
2018-05-09T05:41:11.797Z,17.50
2018-05-09T05:43:38.082Z,17.60
2018-05-09T05:48:32.474Z,17.50
2018-05-09T05:50:59.072Z,17.60
2018-05-09T05:53:25.254Z,17.60
2018-05-09T05:55:51.565Z,17.70
2018-05-09T05:58:17.908Z,17.70
2018-05-09T06:00:44.327Z,17.70
2018-05-09T06:03:10.612Z,17.60
2018-05-09T06:05:39.435Z,17.70
2018-05-09T06:08:05.628Z,17.70
2018-05-09T06:10:32.555Z,17.80
2018-05-09T06:12:58.824Z,17.90
2018-05-09T06:15:25.589Z,17.90
2018-05-09T06:17:51.842Z,17.90
2018-05-09T06:20:18.216Z,18.00
2018-05-09T06:22:45.532Z,18.20
2018-05-09T06:25:11.730Z,18.10
2018-05-09T06:27:37.967Z,18.10
2018-05-09T06:30:04.199Z,18.10
2018-05-09T06:32:30.652Z,18.30
2018-05-09T06:34:57.013Z,18.30
2018-05-09T06:37:24.534Z,18.50
2018-05-09T06:39:50.844Z,18.60
2018-05-09T06:42:18.211Z,18.70
2018-05-09T06:44:45.503Z,18.70
2018-05-09T06:47:11.687Z,18.70
2018-05-09T06:49:37.890Z,18.80
2018-05-09T06:52:04.083Z,18.80
2018-05-09T06:54:30.269Z,18.80
2018-05-09T06:56:56.480Z,19.00
2018-05-09T06:59:23.843Z,19.20
2018-05-09T07:01:50.003Z,19.10
2018-05-09T07:04:18.003Z,19.30
2018-05-09T07:06:44.609Z,19.30
2018-05-09T07:09:10.508Z,19.50
2018-05-09T07:11:36.711Z,19.70
2018-05-09T07:14:04.001Z,19.90
2018-05-09T07:16:30.250Z,19.70
2018-05-09T07:18:56.440Z,19.90
2018-05-09T07:21:22.727Z,20.10
2018-05-09T07:23:48.938Z,19.90
2018-05-09T07:26:16.518Z,20.40
2018-05-09T07:28:42.737Z,20.40
2018-05-09T07:31:09.174Z,20.50
2018-05-09T07:33:35.367Z,20.60
2018-05-09T07:36:01.552Z,20.80
2018-05-09T07:38:27.731Z,20.90
2018-05-09T07:40:53.913Z,21.10
2018-05-09T07:43:20.097Z,21.20
2018-05-09T07:45:47.400Z,21.50
2018-05-09T07:48:13.582Z,21.60
2018-05-09T07:50:39.762Z,21.80
2018-05-09T07:53:05.988Z,21.70
2018-05-09T07:55:32.198Z,21.90
2018-05-09T07:57:58.378Z,22.10
2018-05-09T08:00:24.550Z,22.40
2018-05-09T08:02:50.714Z,22.50
2018-05-09T08:05:16.903Z,22.70
2018-05-09T08:07:43.094Z,22.90
2018-05-09T08:10:09.283Z,23.00
2018-05-09T08:12:35.434Z,23.00
2018-05-09T08:15:01.610Z,23.00
2018-05-09T08:17:27.892Z,23.20
2018-05-09T08:19:55.150Z,23.60
2018-05-09T08:22:22.546Z,23.80
2018-05-09T08:24:48.705Z,23.80
2018-05-09T08:27:14.866Z,23.90
2018-05-09T08:29:41.059Z,23.90
2018-05-09T08:32:07.269Z,24.00
2018-05-09T08:34:33.470Z,24.10
2018-05-09T08:36:59.626Z,24.40
2018-05-09T08:39:26.053Z,24.40
2018-05-09T08:41:52.275Z,24.50
2018-05-09T08:44:18.451Z,24.30
2018-05-09T08:46:44.635Z,24.60
2018-05-09T08:49:12.075Z,24.80
2018-05-09T08:51:38.288Z,24.90
2018-05-09T08:54:04.518Z,24.80
2018-05-09T08:56:30.682Z,25.00
2018-05-09T08:58:56.872Z,25.10
2018-05-09T09:01:23.848Z,25.40
2018-05-09T09:03:50.006Z,25.30
2018-05-09T09:06:16.203Z,25.50
2018-05-09T09:08:43.490Z,25.80
2018-05-09T09:11:09.676Z,25.70
2018-05-09T09:13:35.853Z,25.80
2018-05-09T09:16:03.170Z,26.20
2018-05-09T09:18:29.385Z,26.20
2018-05-09T09:20:55.744Z,26.30
2018-05-09T09:23:21.863Z,26.20
2018-05-09T09:25:48.033Z,26.30
2018-05-09T09:28:14.203Z,26.40
2018-05-09T09:30:40.390Z,26.40
2018-05-09T09:33:07.122Z,26.60
2018-05-09T09:35:33.426Z,26.50
2018-05-09T09:37:59.651Z,26.50
2018-05-09T09:40:26.026Z,26.50
2018-05-09T09:42:52.226Z,26.50
2018-05-09T09:45:18.446Z,26.90
2018-05-09T09:47:44.639Z,27.20
2018-05-09T09:50:10.809Z,27.50
2018-05-09T09:52:38.086Z,27.40
2018-05-09T09:55:05.395Z,27.70
2018-05-09T09:57:31.596Z,27.70
2018-05-09T09:59:58.058Z,27.80
2018-05-09T10:02:24.389Z,28.00
2018-05-09T10:04:50.734Z,28.20
2018-05-09T10:07:16.919Z,28.20
2018-05-09T10:09:43.268Z,28.50
2018-05-09T10:12:09.644Z,28.90
2018-05-09T10:14:36.039Z,29.20
2018-05-09T10:17:02.409Z,29.40
2018-05-09T10:19:29.527Z,29.80
2018-05-09T10:21:55.953Z,29.80
2018-05-09T10:24:22.381Z,29.80
2018-05-09T10:26:49.346Z,30.00
2018-05-09T10:29:16.298Z,30.60
2018-05-09T10:31:42.634Z,30.50
2018-05-09T10:34:09.678Z,30.50
2018-05-09T10:36:36.023Z,30.50
2018-05-09T10:39:02.523Z,30.30
2018-05-09T10:41:28.827Z,30.60
2018-05-09T10:43:55.002Z,31.20
2018-05-09T10:46:21.918Z,31.60
2018-05-09T10:48:48.245Z,31.60
2018-05-09T10:51:14.619Z,30.90
2018-05-09T10:53:40.916Z,29.40
2018-05-09T10:56:07.097Z,28.80
2018-05-09T10:58:33.266Z,28.20
2018-05-09T11:01:00.326Z,27.30
2018-05-09T11:03:26.617Z,27.20
2018-05-09T11:05:52.842Z,26.80
2018-05-09T11:08:19.015Z,26.70
2018-05-09T11:10:45.174Z,27.50
2018-05-09T11:13:11.371Z,27.80
2018-05-09T11:15:37.712Z,27.40
2018-05-09T11:18:04.302Z,27.20
2018-05-09T11:20:31.902Z,27.20
2018-05-09T11:22:58.158Z,27.90
2018-05-09T11:25:24.492Z,28.90
2018-05-09T11:27:51.769Z,29.10
2018-05-09T11:30:17.939Z,29.10
2018-05-09T11:32:44.087Z,28.80
2018-05-09T11:35:10.262Z,28.40
2018-05-09T11:37:37.584Z,27.70
2018-05-09T11:40:03.749Z,27.70
2018-05-09T11:42:29.938Z,27.40
2018-05-09T11:44:56.403Z,28.00
2018-05-09T11:47:22.550Z,28.60
2018-05-09T11:49:48.719Z,29.20
2018-05-09T11:52:14.986Z,31.30
2018-05-09T11:54:41.949Z,35.20
2018-05-09T11:57:08.855Z,35.10
2018-05-09T11:59:35.039Z,35.10
2018-05-09T12:02:02.056Z,32.30
2018-05-09T12:04:28.271Z,32.30
2018-05-09T12:06:54.470Z,31.20
2018-05-09T12:09:20.625Z,30.20
2018-05-09T12:11:47.538Z,28.60
2018-05-09T12:14:13.737Z,28.60
2018-05-09T12:16:39.902Z,29.70
2018-05-09T12:19:06.102Z,30.10
2018-05-09T12:21:33.004Z,30.60
2018-05-09T12:23:59.243Z,30.60
2018-05-09T12:26:25.445Z,31.80
2018-05-09T12:28:52.351Z,31.80
2018-05-09T12:31:18.547Z,31.80
2018-05-09T12:33:44.738Z,32.60
2018-05-09T12:36:10.904Z,33.50
2018-05-09T12:38:37.116Z,34.10
2018-05-09T12:41:03.340Z,34.60
2018-05-09T12:43:29.570Z,34.30
2018-05-09T12:45:55.736Z,34.10
2018-05-09T12:48:21.928Z,34.10
2018-05-09T12:50:48.968Z,34.80
2018-05-09T12:53:15.889Z,35.00
2018-05-09T12:55:42.087Z,35.00
2018-05-09T12:58:09.033Z,35.20
2018-05-09T13:00:36.337Z,36.10
2018-05-09T13:03:02.652Z,36.10
2018-05-09T13:05:29.584Z,38.80
2018-05-09T13:07:55.786Z,38.70
2018-05-09T13:10:21.952Z,39.60
2018-05-09T13:12:48.126Z,40.70
2018-05-09T13:15:15.066Z,41.50
2018-05-09T13:17:41.331Z,41.50
2018-05-09T13:20:08.278Z,42.30
2018-05-09T13:22:34.436Z,42.30
2018-05-09T13:25:00.606Z,42.00
2018-05-09T13:27:26.951Z,41.20
2018-05-09T13:29:53.193Z,39.90
2018-05-09T13:32:19.460Z,39.60
2018-05-09T13:34:45.899Z,38.50
2018-05-09T13:37:13.104Z,38.00
2018-05-09T13:42:13.277Z,35.80
2018-05-09T13:44:39.565Z,35.80
2018-05-09T13:47:05.738Z,35.50
2018-05-09T13:49:31.942Z,34.50
2018-05-09T13:51:58.265Z,32.60
2018-05-09T13:54:24.430Z,32.20
2018-05-09T13:56:50.633Z,31.70
2018-05-09T13:59:17.047Z,30.70
2018-05-09T14:01:43.222Z,29.90
2018-05-09T14:04:09.423Z,29.50
2018-05-09T14:06:35.686Z,29.10
2018-05-09T14:09:01.989Z,30.70
2018-05-09T14:11:28.167Z,31.50
2018-05-09T14:13:55.090Z,32.60
2018-05-09T14:16:21.333Z,32.60
2018-05-09T14:18:47.530Z,33.70
2018-05-09T14:21:13.728Z,34.40
2018-05-09T14:23:39.887Z,35.10
2018-05-09T14:26:06.067Z,35.50
2018-05-09T14:28:32.322Z,36.20
2018-05-09T14:30:58.496Z,36.30
2018-05-09T14:33:24.679Z,36.70
2018-05-09T14:35:50.845Z,36.80
2018-05-09T14:38:16.989Z,36.80
2018-05-09T14:40:43.196Z,36.50
2018-05-09T14:43:09.355Z,36.10
2018-05-09T14:45:35.534Z,36.00
2018-05-09T14:48:01.747Z,35.30
2018-05-09T14:50:27.920Z,35.00
2018-05-09T14:52:54.137Z,34.30
2018-05-09T14:55:20.322Z,32.90
2018-05-09T14:57:47.258Z,32.00
2018-05-09T15:00:13.583Z,32.00
2018-05-09T15:02:40.424Z,30.60
2018-05-09T15:05:06.624Z,30.60
2018-05-09T15:07:33.565Z,29.70
2018-05-09T15:09:59.719Z,29.60
2018-05-09T15:12:27.220Z,28.90
2018-05-09T15:14:53.636Z,28.90
2018-05-09T15:17:19.982Z,28.70
2018-05-09T15:19:46.275Z,28.20
2018-05-09T15:22:19.363Z,28.20
2018-05-09T15:24:46.381Z,27.90
2018-05-09T15:27:13.875Z,27.30
2018-05-09T15:29:40.059Z,27.20
2018-05-09T15:32:06.530Z,27.00
2018-05-09T15:34:32.713Z,27.00
2018-05-09T15:36:58.890Z,26.80
2018-05-09T15:39:25.050Z,26.70
2018-05-09T15:41:51.210Z,26.70
2018-05-09T15:44:17.398Z,26.50
2018-05-09T15:46:43.583Z,26.40
2018-05-09T15:49:10.514Z,26.00
2018-05-09T15:51:36.703Z,25.90
2018-05-09T15:54:02.926Z,25.70
2018-05-09T15:56:30.223Z,25.70
2018-05-09T15:58:56.390Z,25.80
2018-05-09T16:01:22.595Z,25.70
2018-05-09T16:03:48.950Z,25.50
2018-05-09T16:06:15.216Z,25.50
2018-05-09T16:08:41.463Z,25.50
2018-05-09T16:11:07.625Z,25.60
2018-05-09T16:13:34.962Z,25.60
2018-05-09T16:16:01.260Z,25.50
2018-05-09T16:18:27.663Z,25.50
2018-05-09T16:20:54.407Z,25.40
2018-05-09T16:25:49.024Z,25.40
2018-05-09T16:28:16.066Z,25.40
2018-05-09T16:30:42.352Z,25.40
2018-05-09T16:33:08.933Z,25.40
2018-05-09T16:35:35.123Z,25.40
2018-05-09T16:38:01.464Z,25.40
2018-05-09T16:40:28.000Z,25.40
2018-05-09T16:42:55.563Z,25.40
2018-05-09T16:45:21.839Z,25.40
2018-05-09T16:47:48.039Z,25.20
2018-05-09T16:50:14.261Z,25.40
2018-05-09T16:52:41.555Z,25.30
2018-05-09T16:55:07.770Z,25.40
2018-05-09T16:57:35.209Z,25.30
2018-05-09T17:00:01.434Z,25.30
2018-05-09T17:02:27.626Z,25.20
2018-05-09T17:07:25.442Z,25.30
2018-05-09T17:09:51.690Z,25.30
2018-05-09T17:12:17.850Z,25.30
2018-05-09T17:14:44.116Z,25.30
2018-05-09T17:17:10.306Z,25.20
2018-05-09T17:19:36.591Z,25.20
2018-05-09T17:22:21.393Z,25.20
2018-05-09T17:24:48.939Z,25.00
2018-05-09T17:27:16.934Z,24.90
2018-05-09T17:29:43.122Z,24.90
2018-05-09T17:34:37.449Z,24.70
2018-05-09T17:37:03.922Z,24.60
2018-05-09T17:39:30.677Z,24.60
2018-05-09T17:41:57.164Z,24.50
2018-05-09T17:44:24.718Z,24.50
2018-05-09T17:46:50.977Z,24.30
2018-05-09T17:49:17.514Z,24.40
2018-05-09T17:51:44.007Z,24.30
2018-05-09T17:54:10.394Z,24.30
2018-05-09T17:56:36.604Z,24.30
2018-05-09T17:59:02.898Z,24.30
2018-05-09T18:01:31.895Z,24.10
2018-05-09T18:03:58.172Z,24.10
2018-05-09T18:06:24.482Z,24.00
2018-05-09T18:08:50.817Z,24.10
2018-05-09T18:11:17.070Z,24.00
2018-05-09T18:13:43.239Z,24.00
2018-05-09T18:16:10.562Z,24.00
2018-05-09T18:18:36.781Z,24.00
2018-05-09T18:21:03.019Z,23.90
2018-05-09T18:23:29.258Z,23.70
2018-05-09T18:25:55.500Z,23.70
2018-05-09T18:28:22.056Z,23.70
2018-05-09T18:30:48.802Z,23.60
2018-05-09T18:33:15.024Z,23.60
2018-05-09T18:35:42.338Z,23.60
2018-05-09T18:38:08.509Z,23.50
2018-05-09T18:40:34.706Z,23.50
2018-05-09T18:43:00.921Z,23.40
2018-05-09T18:45:28.222Z,23.20
2018-05-09T18:47:54.428Z,23.20
2018-05-09T18:50:21.809Z,23.20
2018-05-09T18:52:48.022Z,23.10
2018-05-09T18:55:15.524Z,23.10
2018-05-09T18:57:41.724Z,23.10
2018-05-09T19:00:07.943Z,23.10
2018-05-09T19:02:34.140Z,23.10
2018-05-09T19:05:00.354Z,23.00
2018-05-09T19:07:26.542Z,22.80
2018-05-09T19:09:52.743Z,22.80
2018-05-09T19:12:20.064Z,22.70
2018-05-09T19:14:46.278Z,22.80
2018-05-09T19:17:12.480Z,22.70
2018-05-09T19:19:38.796Z,22.60
2018-05-09T19:22:05.007Z,22.60
2018-05-09T19:24:31.254Z,22.60
2018-05-09T19:26:57.439Z,22.50
2018-05-09T19:29:23.750Z,22.50
2018-05-09T19:31:49.969Z,22.40
2018-05-09T19:34:16.270Z,22.40
2018-05-09T19:36:42.466Z,22.20
2018-05-09T19:39:08.686Z,22.20
2018-05-09T19:41:34.953Z,22.20
2018-05-09T19:44:01.119Z,22.00
2018-05-09T19:46:27.312Z,22.10
2018-05-09T19:48:53.582Z,21.90
2018-05-09T19:51:19.755Z,21.90
2018-05-09T19:53:45.971Z,21.90
2018-05-09T19:56:12.177Z,21.70
2018-05-09T19:58:38.816Z,21.70
2018-05-09T20:01:05.825Z,21.60
2018-05-09T20:03:32.092Z,21.50
2018-05-09T20:05:58.405Z,21.40
2018-05-09T20:08:24.599Z,21.60
2018-05-09T20:10:52.322Z,22.50
2018-05-09T20:13:18.541Z,21.40
2018-05-09T20:15:44.718Z,21.50
2018-05-09T20:18:10.946Z,21.50
2018-05-09T20:20:37.130Z,21.50
2018-05-09T20:23:04.642Z,21.50
2018-05-09T20:25:30.899Z,21.40
2018-05-09T20:27:57.151Z,21.40
2018-05-09T20:30:29.403Z,21.40
2018-05-09T20:32:55.632Z,21.50
2018-05-09T20:35:21.831Z,21.50
2018-05-09T20:37:48.044Z,21.40
2018-05-09T20:40:14.216Z,21.30
2018-05-09T20:42:40.452Z,21.20
2018-05-09T20:45:06.656Z,21.20
2018-05-09T20:47:33.119Z,21.20
2018-05-09T20:49:59.351Z,21.00
2018-05-09T20:52:25.527Z,21.00
2018-05-09T20:54:51.769Z,21.10
2018-05-09T20:57:18.146Z,21.10
2018-05-09T20:59:44.446Z,21.10
2018-05-09T21:02:10.719Z,20.80
2018-05-09T21:04:38.159Z,20.70
2018-05-09T21:07:04.796Z,20.70
2018-05-09T21:09:31.021Z,20.50
2018-05-09T21:12:08.345Z,20.50
2018-05-09T21:14:34.484Z,20.60
2018-05-09T21:17:00.689Z,20.50
2018-05-09T21:19:26.841Z,20.20
2018-05-09T21:21:53.508Z,20.50
2018-05-09T21:24:20.848Z,20.40
2018-05-09T21:26:47.167Z,20.30
2018-05-09T21:29:14.691Z,20.40
2018-05-09T21:31:40.870Z,20.30
2018-05-09T21:34:07.063Z,20.30
2018-05-09T21:36:33.226Z,20.20
2018-05-09T21:38:59.415Z,20.50
2018-05-09T21:41:26.337Z,20.30
2018-05-09T21:43:53.227Z,20.30
2018-05-09T21:46:19.527Z,20.20
2018-05-09T21:48:45.712Z,20.30
2018-05-09T21:53:41.059Z,20.00
2018-05-09T21:56:08.367Z,19.90
2018-05-09T21:58:34.624Z,19.90
2018-05-09T22:01:00.910Z,19.90
2018-05-09T22:03:28.216Z,20.00
2018-05-09T22:05:54.441Z,19.90
2018-05-09T22:08:20.675Z,19.70
2018-05-09T22:10:47.000Z,19.90
2018-05-09T22:13:13.189Z,20.00
2018-05-09T22:15:39.468Z,20.00
2018-05-09T22:18:07.351Z,20.30
2018-05-09T22:20:33.558Z,20.20
2018-05-09T22:22:59.774Z,20.30
2018-05-09T22:25:25.951Z,20.10
2018-05-09T22:27:52.179Z,20.20
2018-05-09T22:30:18.371Z,20.20
2018-05-09T22:32:45.661Z,20.20
2018-05-09T22:35:11.865Z,20.20
2018-05-09T22:37:39.140Z,20.20
2018-05-09T22:40:05.392Z,20.20
2018-05-09T22:42:31.562Z,20.20
2018-05-09T22:44:57.736Z,20.10
2018-05-09T22:47:24.031Z,20.00
2018-05-09T22:49:50.206Z,19.80
2018-05-09T22:52:16.400Z,19.90
2018-05-09T22:54:42.587Z,19.80
2018-05-09T22:57:08.758Z,19.80
2018-05-09T22:59:36.082Z,19.90
2018-05-09T23:02:02.298Z,19.90
2018-05-09T23:04:28.505Z,19.90
2018-05-09T23:06:55.816Z,19.90
2018-05-09T23:09:21.978Z,19.80
2018-05-09T23:11:48.271Z,19.90
2018-05-09T23:16:43.530Z,19.80
2018-05-09T23:19:09.702Z,19.90
2018-05-09T23:21:35.866Z,19.80
2018-05-09T23:24:02.050Z,19.70
2018-05-09T23:26:28.942Z,19.90
2018-05-09T23:28:55.147Z,19.80
2018-05-09T23:31:22.239Z,19.70
2018-05-09T23:33:48.410Z,19.70
2018-05-09T23:36:14.615Z,19.90
2018-05-09T23:38:40.793Z,19.70
2018-05-09T23:41:06.994Z,19.80
2018-05-09T23:43:33.170Z,19.80
2018-05-09T23:45:59.340Z,19.80
2018-05-09T23:48:26.705Z,19.80
2018-05-09T23:50:52.854Z,19.80
2018-05-09T23:53:19.040Z,19.80
2018-05-09T23:55:45.367Z,19.80
2018-05-09T23:58:12.525Z,19.80
